sensor_id;sensor_type;location;lat;lon;timestamp;P1;durP1;ratioP1;P2;durP2;ratioP2
6269;SDS011;3168;51.684;6.954;2023-05-07T00:01:24;6.50;;;6.10;;
6269;SDS011;3168;51.684;6.954;2023-05-07T00:03:50;10.40;;;7.33;;
6269;SDS011;3168;51.684;6.954;2023-05-07T00:06:15;14.23;;;8.50;;
6269;SDS011;3168;51.684;6.954;2023-05-07T00:08:41;9.40;;;6.80;;
6269;SDS011;3168;51.684;6.954;2023-05-07T00:11:07;7.60;;;7.00;;
6269;SDS011;3168;51.684;6.954;2023-05-07T00:13:33;9.00;;;7.20;;
6269;SDS011;3168;51.684;6.954;2023-05-07T00:15:59;7.77;;;6.97;;
6269;SDS011;3168;51.684;6.954;2023-05-07T00:18:25;8.30;;;7.60;;
6269;SDS011;3168;51.684;6.954;2023-05-07T00:20:50;6.80;;;6.20;;
6269;SDS011;3168;51.684;6.954;2023-05-07T00:23:16;8.03;;;6.87;;
6269;SDS011;3168;51.684;6.954;2023-05-07T00:25:42;7.80;;;7.07;;
6269;SDS011;3168;51.684;6.954;2023-05-07T00:28:08;9.90;;;6.90;;
6269;SDS011;3168;51.684;6.954;2023-05-07T00:30:34;7.80;;;6.00;;
6269;SDS011;3168;51.684;6.954;2023-05-07T00:33:01;8.33;;;7.73;;
6269;SDS011;3168;51.684;6.954;2023-05-07T00:35:27;8.73;;;7.90;;
6269;SDS011;3168;51.684;6.954;2023-05-07T00:37:52;6.77;;;6.27;;
6269;SDS011;3168;51.684;6.954;2023-05-07T00:40:18;6.93;;;6.27;;
6269;SDS011;3168;51.684;6.954;2023-05-07T00:42:44;13.10;;;7.07;;
6269;SDS011;3168;51.684;6.954;2023-05-07T00:45:10;6.87;;;6.27;;
6269;SDS011;3168;51.684;6.954;2023-05-07T00:47:36;7.97;;;7.03;;
6269;SDS011;3168;51.684;6.954;2023-05-07T00:50:02;7.57;;;6.93;;
6269;SDS011;3168;51.684;6.954;2023-05-07T00:52:28;9.40;;;6.20;;
6269;SDS011;3168;51.684;6.954;2023-05-07T00:54:54;7.87;;;7.17;;
6269;SDS011;3168;51.684;6.954;2023-05-07T00:57:19;9.32;;;7.37;;
6269;SDS011;3168;51.684;6.954;2023-05-07T00:59:45;7.70;;;7.10;;
6269;SDS011;3168;51.684;6.954;2023-05-07T01:02:11;9.57;;;7.33;;
6269;SDS011;3168;51.684;6.954;2023-05-07T01:04:37;9.03;;;7.50;;
6269;SDS011;3168;51.684;6.954;2023-05-07T01:07:03;8.30;;;6.93;;
6269;SDS011;3168;51.684;6.954;2023-05-07T01:09:28;12.07;;;7.70;;
6269;SDS011;3168;51.684;6.954;2023-05-07T01:11:55;17.63;;;7.87;;
6269;SDS011;3168;51.684;6.954;2023-05-07T01:14:21;10.37;;;9.40;;
6269;SDS011;3168;51.684;6.954;2023-05-07T01:16:48;9.30;;;8.47;;
6269;SDS011;3168;51.684;6.954;2023-05-07T01:19:13;9.17;;;8.43;;
6269;SDS011;3168;51.684;6.954;2023-05-07T01:21:39;8.50;;;7.80;;
6269;SDS011;3168;51.684;6.954;2023-05-07T01:24:05;8.37;;;7.70;;
6269;SDS011;3168;51.684;6.954;2023-05-07T01:26:31;12.00;;;9.27;;
6269;SDS011;3168;51.684;6.954;2023-05-07T01:28:57;8.97;;;8.13;;
6269;SDS011;3168;51.684;6.954;2023-05-07T01:31:23;9.33;;;8.63;;
6269;SDS011;3168;51.684;6.954;2023-05-07T01:33:48;8.30;;;7.70;;
6269;SDS011;3168;51.684;6.954;2023-05-07T01:36:14;12.77;;;10.03;;
6269;SDS011;3168;51.684;6.954;2023-05-07T01:38:40;7.63;;;7.03;;
6269;SDS011;3168;51.684;6.954;2023-05-07T01:41:06;13.40;;;9.40;;
6269;SDS011;3168;51.684;6.954;2023-05-07T01:43:31;9.67;;;8.67;;
6269;SDS011;3168;51.684;6.954;2023-05-07T01:45:57;8.20;;;7.40;;
6269;SDS011;3168;51.684;6.954;2023-05-07T01:48:24;10.23;;;9.33;;
6269;SDS011;3168;51.684;6.954;2023-05-07T01:50:49;11.53;;;8.80;;
6269;SDS011;3168;51.684;6.954;2023-05-07T01:53:15;8.93;;;8.13;;
6269;SDS011;3168;51.684;6.954;2023-05-07T01:55:41;12.60;;;8.83;;
6269;SDS011;3168;51.684;6.954;2023-05-07T01:58:07;9.77;;;8.67;;
6269;SDS011;3168;51.684;6.954;2023-05-07T02:00:32;8.93;;;8.13;;
6269;SDS011;3168;51.684;6.954;2023-05-07T02:02:58;11.27;;;8.77;;
6269;SDS011;3168;51.684;6.954;2023-05-07T02:05:24;8.13;;;7.43;;
6269;SDS011;3168;51.684;6.954;2023-05-07T02:07:50;7.67;;;7.10;;
6269;SDS011;3168;51.684;6.954;2023-05-07T02:10:16;8.17;;;7.47;;
6269;SDS011;3168;51.684;6.954;2023-05-07T02:12:42;7.83;;;7.23;;
6269;SDS011;3168;51.684;6.954;2023-05-07T02:15:07;8.73;;;7.93;;
6269;SDS011;3168;51.684;6.954;2023-05-07T02:17:34;8.13;;;7.50;;
6269;SDS011;3168;51.684;6.954;2023-05-07T02:20:00;7.80;;;7.30;;
6269;SDS011;3168;51.684;6.954;2023-05-07T02:22:25;10.97;;;9.87;;
6269;SDS011;3168;51.684;6.954;2023-05-07T02:24:51;10.90;;;9.10;;
6269;SDS011;3168;51.684;6.954;2023-05-07T02:27:17;11.67;;;8.33;;
6269;SDS011;3168;51.684;6.954;2023-05-07T02:29:43;9.67;;;8.87;;
6269;SDS011;3168;51.684;6.954;2023-05-07T02:32:09;10.67;;;9.20;;
6269;SDS011;3168;51.684;6.954;2023-05-07T02:34:35;12.03;;;8.40;;
6269;SDS011;3168;51.684;6.954;2023-05-07T02:37:01;7.77;;;7.00;;
6269;SDS011;3168;51.684;6.954;2023-05-07T02:39:27;12.00;;;8.33;;
6269;SDS011;3168;51.684;6.954;2023-05-07T02:41:52;13.77;;;8.90;;
6269;SDS011;3168;51.684;6.954;2023-05-07T02:44:18;9.90;;;9.00;;
6269;SDS011;3168;51.684;6.954;2023-05-07T02:46:44;6.47;;;6.07;;
6269;SDS011;3168;51.684;6.954;2023-05-07T02:49:10;8.03;;;7.37;;
6269;SDS011;3168;51.684;6.954;2023-05-07T02:51:36;8.87;;;8.17;;
6269;SDS011;3168;51.684;6.954;2023-05-07T02:54:01;8.07;;;7.27;;
6269;SDS011;3168;51.684;6.954;2023-05-07T02:56:27;10.10;;;7.73;;
6269;SDS011;3168;51.684;6.954;2023-05-07T02:58:53;9.60;;;7.23;;
6269;SDS011;3168;51.684;6.954;2023-05-07T03:01:19;9.63;;;8.83;;
6269;SDS011;3168;51.684;6.954;2023-05-07T03:03:45;11.40;;;10.20;;
6269;SDS011;3168;51.684;6.954;2023-05-07T03:06:11;8.63;;;7.90;;
6269;SDS011;3168;51.684;6.954;2023-05-07T03:08:36;9.63;;;8.73;;
6269;SDS011;3168;51.684;6.954;2023-05-07T03:11:02;10.63;;;9.00;;
6269;SDS011;3168;51.684;6.954;2023-05-07T03:13:28;10.03;;;9.23;;
6269;SDS011;3168;51.684;6.954;2023-05-07T03:15:54;8.90;;;8.00;;
6269;SDS011;3168;51.684;6.954;2023-05-07T03:18:20;10.83;;;8.80;;
6269;SDS011;3168;51.684;6.954;2023-05-07T03:20:46;11.80;;;8.33;;
6269;SDS011;3168;51.684;6.954;2023-05-07T03:23:11;12.23;;;10.30;;
6269;SDS011;3168;51.684;6.954;2023-05-07T03:25:37;10.53;;;9.43;;
6269;SDS011;3168;51.684;6.954;2023-05-07T03:28:03;10.60;;;9.30;;
6269;SDS011;3168;51.684;6.954;2023-05-07T03:30:30;11.60;;;8.90;;
6269;SDS011;3168;51.684;6.954;2023-05-07T03:32:56;10.17;;;9.07;;
6269;SDS011;3168;51.684;6.954;2023-05-07T03:35:21;9.93;;;8.87;;
6269;SDS011;3168;51.684;6.954;2023-05-07T03:37:47;8.97;;;8.13;;
6269;SDS011;3168;51.684;6.954;2023-05-07T03:40:13;9.30;;;8.40;;
6269;SDS011;3168;51.684;6.954;2023-05-07T03:42:39;7.57;;;7.03;;
6269;SDS011;3168;51.684;6.954;2023-05-07T03:45:05;8.70;;;7.93;;
6269;SDS011;3168;51.684;6.954;2023-05-07T03:47:32;9.40;;;7.33;;
6269;SDS011;3168;51.684;6.954;2023-05-07T03:49:57;10.00;;;9.00;;
6269;SDS011;3168;51.684;6.954;2023-05-07T03:52:23;9.07;;;8.17;;
6269;SDS011;3168;51.684;6.954;2023-05-07T03:54:49;8.80;;;7.80;;
6269;SDS011;3168;51.684;6.954;2023-05-07T03:57:15;8.85;;;8.02;;
6269;SDS011;3168;51.684;6.954;2023-05-07T03:59:41;10.93;;;9.90;;
6269;SDS011;3168;51.684;6.954;2023-05-07T04:02:07;8.70;;;7.90;;
6269;SDS011;3168;51.684;6.954;2023-05-07T04:04:33;10.17;;;9.20;;
6269;SDS011;3168;51.684;6.954;2023-05-07T04:06:58;9.40;;;8.40;;
6269;SDS011;3168;51.684;6.954;2023-05-07T04:09:25;9.23;;;8.43;;
6269;SDS011;3168;51.684;6.954;2023-05-07T04:11:51;8.40;;;7.40;;
6269;SDS011;3168;51.684;6.954;2023-05-07T04:14:17;9.20;;;8.37;;
6269;SDS011;3168;51.684;6.954;2023-05-07T04:16:42;9.60;;;8.60;;
6269;SDS011;3168;51.684;6.954;2023-05-07T04:19:09;10.60;;;8.17;;
6269;SDS011;3168;51.684;6.954;2023-05-07T04:21:35;10.17;;;8.50;;
6269;SDS011;3168;51.684;6.954;2023-05-07T04:24:02;13.17;;;9.93;;
6269;SDS011;3168;51.684;6.954;2023-05-07T04:26:27;9.27;;;8.37;;
6269;SDS011;3168;51.684;6.954;2023-05-07T04:28:52;7.77;;;7.10;;
6269;SDS011;3168;51.684;6.954;2023-05-07T04:31:18;9.00;;;8.10;;
6269;SDS011;3168;51.684;6.954;2023-05-07T04:33:45;9.77;;;8.90;;
6269;SDS011;3168;51.684;6.954;2023-05-07T04:36:11;11.43;;;10.33;;
6269;SDS011;3168;51.684;6.954;2023-05-07T04:38:36;8.57;;;7.80;;
6269;SDS011;3168;51.684;6.954;2023-05-07T04:41:03;8.40;;;7.60;;
6269;SDS011;3168;51.684;6.954;2023-05-07T04:43:28;29.93;;;10.40;;
6269;SDS011;3168;51.684;6.954;2023-05-07T04:45:54;17.40;;;8.60;;
6269;SDS011;3168;51.684;6.954;2023-05-07T04:48:20;9.17;;;8.17;;
6269;SDS011;3168;51.684;6.954;2023-05-07T04:50:47;9.60;;;8.57;;
6269;SDS011;3168;51.684;6.954;2023-05-07T04:53:12;12.07;;;8.83;;
6269;SDS011;3168;51.684;6.954;2023-05-07T04:55:38;10.03;;;9.07;;
6269;SDS011;3168;51.684;6.954;2023-05-07T04:58:04;14.10;;;9.00;;
6269;SDS011;3168;51.684;6.954;2023-05-07T05:00:30;10.40;;;9.30;;
6269;SDS011;3168;51.684;6.954;2023-05-07T05:02:56;9.27;;;8.27;;
6269;SDS011;3168;51.684;6.954;2023-05-07T05:05:22;7.77;;;7.10;;
6269;SDS011;3168;51.684;6.954;2023-05-07T05:07:48;9.80;;;8.93;;
6269;SDS011;3168;51.684;6.954;2023-05-07T05:10:14;7.83;;;7.20;;
6269;SDS011;3168;51.684;6.954;2023-05-07T05:12:40;9.80;;;8.97;;
6269;SDS011;3168;51.684;6.954;2023-05-07T05:15:06;9.53;;;8.73;;
6269;SDS011;3168;51.684;6.954;2023-05-07T05:17:32;9.10;;;8.20;;
6269;SDS011;3168;51.684;6.954;2023-05-07T05:19:58;13.00;;;7.87;;
6269;SDS011;3168;51.684;6.954;2023-05-07T05:22:24;10.67;;;9.63;;
6269;SDS011;3168;51.684;6.954;2023-05-07T05:24:50;10.87;;;9.03;;
6269;SDS011;3168;51.684;6.954;2023-05-07T05:27:16;9.90;;;8.07;;
6269;SDS011;3168;51.684;6.954;2023-05-07T05:29:41;7.63;;;6.93;;
6269;SDS011;3168;51.684;6.954;2023-05-07T05:32:07;8.63;;;7.50;;
6269;SDS011;3168;51.684;6.954;2023-05-07T05:34:33;8.90;;;8.03;;
6269;SDS011;3168;51.684;6.954;2023-05-07T05:36:59;8.97;;;8.13;;
6269;SDS011;3168;51.684;6.954;2023-05-07T05:39:25;9.03;;;7.80;;
6269;SDS011;3168;51.684;6.954;2023-05-07T05:41:51;8.10;;;7.50;;
6269;SDS011;3168;51.684;6.954;2023-05-07T05:44:16;7.63;;;7.00;;
6269;SDS011;3168;51.684;6.954;2023-05-07T05:46:42;8.00;;;7.30;;
6269;SDS011;3168;51.684;6.954;2023-05-07T05:49:08;7.17;;;6.63;;
6269;SDS011;3168;51.684;6.954;2023-05-07T05:51:34;7.80;;;7.30;;
6269;SDS011;3168;51.684;6.954;2023-05-07T05:54:00;13.47;;;10.23;;
6269;SDS011;3168;51.684;6.954;2023-05-07T05:56:25;7.40;;;6.83;;
6269;SDS011;3168;51.684;6.954;2023-05-07T05:58:51;7.93;;;7.33;;
6269;SDS011;3168;51.684;6.954;2023-05-07T06:01:17;9.60;;;8.00;;
6269;SDS011;3168;51.684;6.954;2023-05-07T06:03:43;8.67;;;7.97;;
6269;SDS011;3168;51.684;6.954;2023-05-07T06:06:09;20.00;;;8.07;;
6269;SDS011;3168;51.684;6.954;2023-05-07T06:08:35;6.77;;;6.30;;
6269;SDS011;3168;51.684;6.954;2023-05-07T06:11:01;12.80;;;9.50;;
6269;SDS011;3168;51.684;6.954;2023-05-07T06:13:26;8.37;;;7.57;;
6269;SDS011;3168;51.684;6.954;2023-05-07T06:15:52;7.70;;;7.10;;
6269;SDS011;3168;51.684;6.954;2023-05-07T06:18:18;8.20;;;6.80;;
6269;SDS011;3168;51.684;6.954;2023-05-07T06:20:44;6.30;;;5.70;;
6269;SDS011;3168;51.684;6.954;2023-05-07T06:23:10;9.40;;;7.87;;
6269;SDS011;3168;51.684;6.954;2023-05-07T06:25:35;7.03;;;6.33;;
6269;SDS011;3168;51.684;6.954;2023-05-07T06:28:02;7.47;;;6.67;;
6269;SDS011;3168;51.684;6.954;2023-05-07T06:30:28;6.30;;;5.70;;
6269;SDS011;3168;51.684;6.954;2023-05-07T06:32:54;7.60;;;6.30;;
6269;SDS011;3168;51.684;6.954;2023-05-07T06:35:20;6.17;;;5.77;;
6269;SDS011;3168;51.684;6.954;2023-05-07T06:37:46;7.00;;;6.40;;
6269;SDS011;3168;51.684;6.954;2023-05-07T06:40:12;9.07;;;6.93;;
6269;SDS011;3168;51.684;6.954;2023-05-07T06:42:38;6.50;;;6.10;;
6269;SDS011;3168;51.684;6.954;2023-05-07T06:45:04;7.57;;;6.90;;
6269;SDS011;3168;51.684;6.954;2023-05-07T06:47:30;7.80;;;6.70;;
6269;SDS011;3168;51.684;6.954;2023-05-07T06:49:56;7.57;;;6.63;;
6269;SDS011;3168;51.684;6.954;2023-05-07T06:52:22;6.40;;;5.80;;
6269;SDS011;3168;51.684;6.954;2023-05-07T06:54:49;9.10;;;7.30;;
6269;SDS011;3168;51.684;6.954;2023-05-07T06:57:15;10.10;;;7.27;;
6269;SDS011;3168;51.684;6.954;2023-05-07T06:59:40;10.67;;;6.30;;
6269;SDS011;3168;51.684;6.954;2023-05-07T07:02:06;6.07;;;5.67;;
6269;SDS011;3168;51.684;6.954;2023-05-07T07:04:32;6.43;;;5.83;;
6269;SDS011;3168;51.684;6.954;2023-05-07T07:06:58;6.33;;;5.90;;
6269;SDS011;3168;51.684;6.954;2023-05-07T07:09:24;6.83;;;6.23;;
6269;SDS011;3168;51.684;6.954;2023-05-07T07:11:50;6.47;;;6.07;;
6269;SDS011;3168;51.684;6.954;2023-05-07T07:14:16;10.00;;;5.90;;
6269;SDS011;3168;51.684;6.954;2023-05-07T07:16:42;6.37;;;5.87;;
6269;SDS011;3168;51.684;6.954;2023-05-07T07:19:08;6.50;;;5.90;;
6269;SDS011;3168;51.684;6.954;2023-05-07T07:21:34;6.60;;;6.10;;
6269;SDS011;3168;51.684;6.954;2023-05-07T07:23:59;8.37;;;6.00;;
6269;SDS011;3168;51.684;6.954;2023-05-07T07:26:25;6.83;;;6.37;;
6269;SDS011;3168;51.684;6.954;2023-05-07T07:28:51;6.30;;;5.90;;
6269;SDS011;3168;51.684;6.954;2023-05-07T07:31:17;6.77;;;6.27;;
6269;SDS011;3168;51.684;6.954;2023-05-07T07:33:43;7.30;;;6.70;;
6269;SDS011;3168;51.684;6.954;2023-05-07T07:36:09;7.03;;;6.33;;
6269;SDS011;3168;51.684;6.954;2023-05-07T07:38:34;5.83;;;5.47;;
6269;SDS011;3168;51.684;6.954;2023-05-07T07:41:01;6.63;;;6.23;;
6269;SDS011;3168;51.684;6.954;2023-05-07T07:43:26;5.77;;;5.47;;
6269;SDS011;3168;51.684;6.954;2023-05-07T07:45:52;6.90;;;6.40;;
6269;SDS011;3168;51.684;6.954;2023-05-07T07:48:18;7.87;;;7.17;;
6269;SDS011;3168;51.684;6.954;2023-05-07T07:50:44;7.13;;;6.50;;
6269;SDS011;3168;51.684;6.954;2023-05-07T07:53:09;6.10;;;5.67;;
6269;SDS011;3168;51.684;6.954;2023-05-07T07:55:38;7.23;;;6.53;;
6269;SDS011;3168;51.684;6.954;2023-05-07T07:58:03;8.88;;;6.57;;
6269;SDS011;3168;51.684;6.954;2023-05-07T08:00:39;9.13;;;6.40;;
6269;SDS011;3168;51.684;6.954;2023-05-07T08:03:05;6.60;;;5.97;;
6269;SDS011;3168;51.684;6.954;2023-05-07T08:05:35;6.33;;;5.83;;
6269;SDS011;3168;51.684;6.954;2023-05-07T08:08:12;7.50;;;6.70;;
6269;SDS011;3168;51.684;6.954;2023-05-07T08:10:48;11.67;;;5.63;;
6269;SDS011;3168;51.684;6.954;2023-05-07T08:13:19;7.83;;;6.47;;
6269;SDS011;3168;51.684;6.954;2023-05-07T08:15:45;10.40;;;7.00;;
6269;SDS011;3168;51.684;6.954;2023-05-07T08:18:21;7.43;;;6.33;;
6269;SDS011;3168;51.684;6.954;2023-05-07T08:20:57;7.23;;;6.47;;
6269;SDS011;3168;51.684;6.954;2023-05-07T08:23:28;15.17;;;8.23;;
6269;SDS011;3168;51.684;6.954;2023-05-07T08:26:04;7.63;;;7.03;;
6269;SDS011;3168;51.684;6.954;2023-05-07T08:28:35;7.93;;;7.13;;
6269;SDS011;3168;51.684;6.954;2023-05-07T08:31:11;10.73;;;6.20;;
6269;SDS011;3168;51.684;6.954;2023-05-07T08:33:42;6.73;;;6.03;;
6269;SDS011;3168;51.684;6.954;2023-05-07T08:36:14;6.60;;;6.00;;
6269;SDS011;3168;51.684;6.954;2023-05-07T08:38:51;6.53;;;6.13;;
6269;SDS011;3168;51.684;6.954;2023-05-07T08:41:17;7.33;;;6.73;;
6269;SDS011;3168;51.684;6.954;2023-05-07T08:43:48;11.70;;;6.10;;
6269;SDS011;3168;51.684;6.954;2023-05-07T08:46:15;6.83;;;6.23;;
6269;SDS011;3168;51.684;6.954;2023-05-07T08:48:39;7.93;;;7.20;;
6269;SDS011;3168;51.684;6.954;2023-05-07T08:51:05;9.00;;;6.03;;
6269;SDS011;3168;51.684;6.954;2023-05-07T08:53:31;6.30;;;5.80;;
6269;SDS011;3168;51.684;6.954;2023-05-07T08:55:57;9.93;;;7.57;;
6269;SDS011;3168;51.684;6.954;2023-05-07T08:58:23;8.77;;;6.60;;
6269;SDS011;3168;51.684;6.954;2023-05-07T09:01:00;6.97;;;6.37;;
6269;SDS011;3168;51.684;6.954;2023-05-07T09:03:25;8.87;;;7.97;;
6269;SDS011;3168;51.684;6.954;2023-05-07T09:05:51;8.23;;;6.50;;
6269;SDS011;3168;51.684;6.954;2023-05-07T09:08:17;6.33;;;5.93;;
6269;SDS011;3168;51.684;6.954;2023-05-07T09:10:42;7.07;;;6.47;;
6269;SDS011;3168;51.684;6.954;2023-05-07T09:13:08;6.60;;;5.97;;
6269;SDS011;3168;51.684;6.954;2023-05-07T09:15:34;11.43;;;7.10;;
6269;SDS011;3168;51.684;6.954;2023-05-07T09:18:00;8.30;;;7.27;;
6269;SDS011;3168;51.684;6.954;2023-05-07T09:20:27;6.50;;;6.00;;
6269;SDS011;3168;51.684;6.954;2023-05-07T09:22:54;7.60;;;7.03;;
6269;SDS011;3168;51.684;6.954;2023-05-07T09:25:23;6.97;;;6.40;;
6269;SDS011;3168;51.684;6.954;2023-05-07T09:27:44;7.87;;;7.20;;
6269;SDS011;3168;51.684;6.954;2023-05-07T09:30:10;9.50;;;6.87;;
6269;SDS011;3168;51.684;6.954;2023-05-07T09:32:37;14.03;;;6.67;;
6269;SDS011;3168;51.684;6.954;2023-05-07T09:35:03;6.70;;;6.20;;
6269;SDS011;3168;51.684;6.954;2023-05-07T09:37:30;6.10;;;5.60;;
6269;SDS011;3168;51.684;6.954;2023-05-07T09:39:55;7.70;;;7.03;;
6269;SDS011;3168;51.684;6.954;2023-05-07T09:42:22;8.13;;;7.40;;
6269;SDS011;3168;51.684;6.954;2023-05-07T09:44:48;7.47;;;6.83;;
6269;SDS011;3168;51.684;6.954;2023-05-07T09:47:15;7.67;;;7.07;;
6269;SDS011;3168;51.684;6.954;2023-05-07T09:49:39;5.93;;;5.50;;
6269;SDS011;3168;51.684;6.954;2023-05-07T09:52:06;8.10;;;7.50;;
6269;SDS011;3168;51.684;6.954;2023-05-07T09:54:32;7.93;;;7.37;;
6269;SDS011;3168;51.684;6.954;2023-05-07T09:56:57;10.17;;;6.50;;
6269;SDS011;3168;51.684;6.954;2023-05-07T09:59:23;6.43;;;6.03;;
6269;SDS011;3168;51.684;6.954;2023-05-07T10:01:49;7.67;;;6.97;;
6269;SDS011;3168;51.684;6.954;2023-05-07T10:04:14;6.90;;;6.00;;
6269;SDS011;3168;51.684;6.954;2023-05-07T10:06:40;14.40;;;6.77;;
6269;SDS011;3168;51.684;6.954;2023-05-07T10:09:06;7.13;;;6.63;;
6269;SDS011;3168;51.684;6.954;2023-05-07T10:11:33;6.60;;;6.27;;
6269;SDS011;3168;51.684;6.954;2023-05-07T10:14:00;6.40;;;5.80;;
6269;SDS011;3168;51.684;6.954;2023-05-07T10:16:25;15.73;;;6.30;;
6269;SDS011;3168;51.684;6.954;2023-05-07T10:18:51;5.03;;;4.63;;
6269;SDS011;3168;51.684;6.954;2023-05-07T10:21:18;6.33;;;5.93;;
6269;SDS011;3168;51.684;6.954;2023-05-07T10:23:45;5.27;;;4.93;;
6269;SDS011;3168;51.684;6.954;2023-05-07T10:26:10;5.07;;;4.67;;
6269;SDS011;3168;51.684;6.954;2023-05-07T10:28:38;8.50;;;5.63;;
6269;SDS011;3168;51.684;6.954;2023-05-07T10:31:17;6.77;;;5.40;;
6269;SDS011;3168;51.684;6.954;2023-05-07T10:33:44;3.93;;;3.73;;
6269;SDS011;3168;51.684;6.954;2023-05-07T10:36:09;7.67;;;4.43;;
6269;SDS011;3168;51.684;6.954;2023-05-07T10:38:35;4.17;;;3.97;;
6269;SDS011;3168;51.684;6.954;2023-05-07T10:41:01;5.00;;;4.70;;
6269;SDS011;3168;51.684;6.954;2023-05-07T10:43:37;4.80;;;4.50;;
6269;SDS011;3168;51.684;6.954;2023-05-07T10:48:31;4.50;;;4.10;;
6269;SDS011;3168;51.684;6.954;2023-05-07T10:53:35;4.47;;;4.23;;
6269;SDS011;3168;51.684;6.954;2023-05-07T10:58:50;4.47;;;4.27;;
6269;SDS011;3168;51.684;6.954;2023-05-07T11:01:16;4.57;;;4.17;;
6269;SDS011;3168;51.684;6.954;2023-05-07T11:06:19;4.93;;;4.53;;
6269;SDS011;3168;51.684;6.954;2023-05-07T11:08:55;14.43;;;5.90;;
6269;SDS011;3168;51.684;6.954;2023-05-07T11:11:42;4.60;;;4.30;;
6269;SDS011;3168;51.684;6.954;2023-05-07T11:13:47;5.03;;;4.70;;
6269;SDS011;3168;51.684;6.954;2023-05-07T11:16:16;3.80;;;3.60;;
6269;SDS011;3168;51.684;6.954;2023-05-07T11:18:46;8.63;;;5.37;;
6269;SDS011;3168;51.684;6.954;2023-05-07T11:21:11;16.57;;;4.87;;
6269;SDS011;3168;51.684;6.954;2023-05-07T11:26:21;4.80;;;4.57;;
6269;SDS011;3168;51.684;6.954;2023-05-07T11:28:47;4.73;;;4.33;;
6269;SDS011;3168;51.684;6.954;2023-05-07T11:31:13;6.13;;;5.63;;
6269;SDS011;3168;51.684;6.954;2023-05-07T11:33:39;9.53;;;5.00;;
6269;SDS011;3168;51.684;6.954;2023-05-07T11:36:05;5.33;;;4.90;;
6269;SDS011;3168;51.684;6.954;2023-05-07T11:38:34;4.50;;;4.00;;
6269;SDS011;3168;51.684;6.954;2023-05-07T11:40:57;7.33;;;5.50;;
6269;SDS011;3168;51.684;6.954;2023-05-07T11:43:23;5.90;;;5.37;;
6269;SDS011;3168;51.684;6.954;2023-05-07T11:45:49;7.00;;;4.53;;
6269;SDS011;3168;51.684;6.954;2023-05-07T11:48:15;4.50;;;4.30;;
6269;SDS011;3168;51.684;6.954;2023-05-07T11:50:49;5.80;;;5.37;;
6269;SDS011;3168;51.684;6.954;2023-05-07T11:53:20;5.40;;;4.93;;
6269;SDS011;3168;51.684;6.954;2023-05-07T11:55:45;5.80;;;5.20;;
6269;SDS011;3168;51.684;6.954;2023-05-07T11:58:12;5.20;;;4.37;;
6269;SDS011;3168;51.684;6.954;2023-05-07T12:00:37;4.97;;;4.67;;
6269;SDS011;3168;51.684;6.954;2023-05-07T12:03:04;4.70;;;4.40;;
6269;SDS011;3168;51.684;6.954;2023-05-07T12:05:30;7.03;;;5.30;;
6269;SDS011;3168;51.684;6.954;2023-05-07T12:07:56;4.83;;;4.23;;
6269;SDS011;3168;51.684;6.954;2023-05-07T12:10:27;3.73;;;3.63;;
6269;SDS011;3168;51.684;6.954;2023-05-07T12:12:52;5.07;;;4.40;;
6269;SDS011;3168;51.684;6.954;2023-05-07T12:15:22;5.83;;;5.23;;
6269;SDS011;3168;51.684;6.954;2023-05-07T12:17:44;4.50;;;4.20;;
6269;SDS011;3168;51.684;6.954;2023-05-07T12:20:10;6.37;;;4.87;;
6269;SDS011;3168;51.684;6.954;2023-05-07T12:22:36;3.60;;;3.30;;
6269;SDS011;3168;51.684;6.954;2023-05-07T12:25:02;3.20;;;3.10;;
6269;SDS011;3168;51.684;6.954;2023-05-07T12:27:28;5.50;;;4.43;;
6269;SDS011;3168;51.684;6.954;2023-05-07T12:29:54;3.50;;;3.30;;
6269;SDS011;3168;51.684;6.954;2023-05-07T12:32:20;4.20;;;2.90;;
6269;SDS011;3168;51.684;6.954;2023-05-07T12:34:46;3.27;;;3.07;;
6269;SDS011;3168;51.684;6.954;2023-05-07T12:37:12;3.40;;;3.20;;
6269;SDS011;3168;51.684;6.954;2023-05-07T12:39:38;3.00;;;2.80;;
6269;SDS011;3168;51.684;6.954;2023-05-07T12:42:04;2.77;;;2.67;;
6269;SDS011;3168;51.684;6.954;2023-05-07T12:44:30;4.83;;;2.17;;
6269;SDS011;3168;51.684;6.954;2023-05-07T12:46:56;3.20;;;2.90;;
6269;SDS011;3168;51.684;6.954;2023-05-07T12:49:22;5.80;;;4.50;;
6269;SDS011;3168;51.684;6.954;2023-05-07T12:51:48;2.67;;;2.47;;
6269;SDS011;3168;51.684;6.954;2023-05-07T12:54:27;3.40;;;3.10;;
6269;SDS011;3168;51.684;6.954;2023-05-07T12:56:40;3.40;;;2.57;;
6269;SDS011;3168;51.684;6.954;2023-05-07T12:59:05;3.17;;;3.07;;
6269;SDS011;3168;51.684;6.954;2023-05-07T13:01:33;2.90;;;2.80;;
6269;SDS011;3168;51.684;6.954;2023-05-07T13:04:00;5.00;;;3.70;;
6269;SDS011;3168;51.684;6.954;2023-05-07T13:06:23;2.97;;;2.83;;
6269;SDS011;3168;51.684;6.954;2023-05-07T13:08:49;3.63;;;3.30;;
6269;SDS011;3168;51.684;6.954;2023-05-07T13:11:15;3.93;;;3.73;;
6269;SDS011;3168;51.684;6.954;2023-05-07T13:13:41;4.67;;;4.40;;
6269;SDS011;3168;51.684;6.954;2023-05-07T13:16:07;10.97;;;3.70;;
6269;SDS011;3168;51.684;6.954;2023-05-07T13:18:33;2.60;;;2.50;;
6269;SDS011;3168;51.684;6.954;2023-05-07T13:20:59;4.10;;;3.90;;
6269;SDS011;3168;51.684;6.954;2023-05-07T13:23:24;5.37;;;3.73;;
6269;SDS011;3168;51.684;6.954;2023-05-07T13:25:50;5.13;;;4.43;;
6269;SDS011;3168;51.684;6.954;2023-05-07T13:28:16;6.77;;;4.53;;
6269;SDS011;3168;51.684;6.954;2023-05-07T13:30:42;5.33;;;4.00;;
6269;SDS011;3168;51.684;6.954;2023-05-07T13:33:07;3.93;;;3.73;;
6269;SDS011;3168;51.684;6.954;2023-05-07T13:35:33;4.23;;;3.80;;
6269;SDS011;3168;51.684;6.954;2023-05-07T13:37:59;4.00;;;3.70;;
6269;SDS011;3168;51.684;6.954;2023-05-07T13:40:25;5.57;;;5.17;;
6269;SDS011;3168;51.684;6.954;2023-05-07T13:42:51;4.27;;;3.90;;
6269;SDS011;3168;51.684;6.954;2023-05-07T13:45:18;4.07;;;3.77;;
6269;SDS011;3168;51.684;6.954;2023-05-07T13:47:44;4.17;;;3.87;;
6269;SDS011;3168;51.684;6.954;2023-05-07T13:50:10;4.17;;;3.97;;
6269;SDS011;3168;51.684;6.954;2023-05-07T13:52:35;6.63;;;5.63;;
6269;SDS011;3168;51.684;6.954;2023-05-07T13:55:01;6.97;;;5.73;;
6269;SDS011;3168;51.684;6.954;2023-05-07T13:57:27;3.37;;;3.17;;
6269;SDS011;3168;51.684;6.954;2023-05-07T13:59:53;3.77;;;3.60;;
6269;SDS011;3168;51.684;6.954;2023-05-07T14:02:19;3.97;;;3.77;;
6269;SDS011;3168;51.684;6.954;2023-05-07T14:04:44;3.30;;;3.10;;
6269;SDS011;3168;51.684;6.954;2023-05-07T14:07:11;4.70;;;4.40;;
6269;SDS011;3168;51.684;6.954;2023-05-07T14:09:37;9.27;;;3.17;;
6269;SDS011;3168;51.684;6.954;2023-05-07T14:12:03;3.20;;;3.10;;
6269;SDS011;3168;51.684;6.954;2023-05-07T14:14:29;4.37;;;4.10;;
6269;SDS011;3168;51.684;6.954;2023-05-07T14:16:56;3.13;;;3.00;;
6269;SDS011;3168;51.684;6.954;2023-05-07T14:19:21;3.80;;;3.50;;
6269;SDS011;3168;51.684;6.954;2023-05-07T14:21:47;4.43;;;4.03;;
6269;SDS011;3168;51.684;6.954;2023-05-07T14:24:13;3.90;;;3.60;;
6269;SDS011;3168;51.684;6.954;2023-05-07T14:26:39;3.50;;;3.23;;
6269;SDS011;3168;51.684;6.954;2023-05-07T14:29:05;3.13;;;2.97;;
6269;SDS011;3168;51.684;6.954;2023-05-07T14:31:33;3.43;;;3.33;;
6269;SDS011;3168;51.684;6.954;2023-05-07T14:36:44;3.23;;;3.13;;
6269;SDS011;3168;51.684;6.954;2023-05-07T14:39:09;3.07;;;2.97;;
6269;SDS011;3168;51.684;6.954;2023-05-07T14:41:35;3.30;;;3.10;;
6269;SDS011;3168;51.684;6.954;2023-05-07T14:44:01;3.80;;;3.50;;
6269;SDS011;3168;51.684;6.954;2023-05-07T14:49:11;3.03;;;2.80;;
6269;SDS011;3168;51.684;6.954;2023-05-07T14:51:37;4.63;;;4.23;;
6269;SDS011;3168;51.684;6.954;2023-05-07T14:54:03;3.33;;;3.07;;
6269;SDS011;3168;51.684;6.954;2023-05-07T14:56:29;3.37;;;3.10;;
6269;SDS011;3168;51.684;6.954;2023-05-07T14:58:54;3.30;;;3.10;;
6269;SDS011;3168;51.684;6.954;2023-05-07T15:01:20;4.63;;;4.13;;
6269;SDS011;3168;51.684;6.954;2023-05-07T15:03:46;14.70;;;5.13;;
6269;SDS011;3168;51.684;6.954;2023-05-07T15:06:13;3.80;;;3.60;;
6269;SDS011;3168;51.684;6.954;2023-05-07T15:08:38;5.43;;;4.77;;
6269;SDS011;3168;51.684;6.954;2023-05-07T15:11:05;5.10;;;4.80;;
6269;SDS011;3168;51.684;6.954;2023-05-07T15:13:31;4.87;;;4.50;;
6269;SDS011;3168;51.684;6.954;2023-05-07T15:15:56;4.80;;;4.40;;
6269;SDS011;3168;51.684;6.954;2023-05-07T15:18:23;4.13;;;3.80;;
6269;SDS011;3168;51.684;6.954;2023-05-07T15:20:48;4.73;;;4.40;;
6269;SDS011;3168;51.684;6.954;2023-05-07T15:23:14;5.03;;;4.50;;
6269;SDS011;3168;51.684;6.954;2023-05-07T15:25:40;4.03;;;3.73;;